createdAt,value
2018-05-24T00:00:08.092Z,20.70
2018-05-24T00:02:37.093Z,20.80
2018-05-24T00:05:05.312Z,20.80
2018-05-24T00:07:33.547Z,20.90
2018-05-24T00:10:01.964Z,20.50
2018-05-24T00:12:30.961Z,20.80
2018-05-24T00:14:59.174Z,20.80
2018-05-24T00:17:28.169Z,21.40
2018-05-24T00:19:57.141Z,21.20
2018-05-24T00:22:25.364Z,21.10
2018-05-24T00:24:54.358Z,21.30
2018-05-24T00:27:23.454Z,21.30
2018-05-24T00:29:51.665Z,21.30
2018-05-24T00:32:20.782Z,21.10
2018-05-24T00:34:49.754Z,21.20
2018-05-24T00:37:18.069Z,21.20
2018-05-24T00:39:47.075Z,20.90
2018-05-24T00:42:16.044Z,21.00
2018-05-24T00:44:44.264Z,21.00
2018-05-24T00:47:13.249Z,20.90
2018-05-24T00:49:41.486Z,20.80
2018-05-24T00:52:09.697Z,20.90
2018-05-24T00:54:37.997Z,20.70
2018-05-24T00:57:06.146Z,20.80
2018-05-24T00:59:34.369Z,20.60
2018-05-24T01:02:02.590Z,20.70
2018-05-24T01:04:30.863Z,20.60
2018-05-24T01:06:59.065Z,20.70
2018-05-24T01:09:27.320Z,20.90
2018-05-24T01:11:55.640Z,20.80
2018-05-24T01:14:23.853Z,20.50
2018-05-24T01:16:52.074Z,20.20
2018-05-24T01:19:20.308Z,20.10
2018-05-24T01:21:48.608Z,20.40
2018-05-24T01:24:17.638Z,20.30
2018-05-24T01:26:45.865Z,20.30
2018-05-24T01:29:14.191Z,20.50
2018-05-24T01:31:43.161Z,20.60
2018-05-24T01:34:11.414Z,20.60
2018-05-24T01:36:51.673Z,20.90
2018-05-24T01:39:19.884Z,20.90
2018-05-24T01:41:48.101Z,21.10
2018-05-24T01:44:16.354Z,21.20
2018-05-24T01:46:44.618Z,21.20
2018-05-24T01:49:13.615Z,20.70
2018-05-24T01:51:42.601Z,20.40
2018-05-24T01:54:10.836Z,20.40
2018-05-24T01:56:39.047Z,20.50
2018-05-24T01:59:07.284Z,20.80
2018-05-24T02:01:36.269Z,20.90
2018-05-24T02:04:04.488Z,20.90
2018-05-24T02:06:32.765Z,21.30
2018-05-24T02:09:01.819Z,20.70
2018-05-24T02:11:30.034Z,20.70
2018-05-24T02:13:58.249Z,20.80
2018-05-24T02:16:27.246Z,21.10
2018-05-24T02:18:55.449Z,21.10
2018-05-24T02:21:23.684Z,21.00
2018-05-24T02:23:51.908Z,21.20
2018-05-24T02:26:20.917Z,21.10
2018-05-24T02:28:49.999Z,21.00
2018-05-24T02:31:18.201Z,20.90
2018-05-24T02:33:46.421Z,21.00
2018-05-24T02:36:14.629Z,20.80
2018-05-24T02:38:42.869Z,20.30
2018-05-24T02:41:11.071Z,20.00
2018-05-24T02:43:40.064Z,20.20
2018-05-24T02:46:09.081Z,19.90
2018-05-24T02:48:38.059Z,19.80
2018-05-24T02:51:06.302Z,19.90
2018-05-24T02:53:34.571Z,20.00
2018-05-24T02:56:03.601Z,20.20
2018-05-24T02:58:31.882Z,20.20
2018-05-24T03:01:00.099Z,19.80
2018-05-24T03:03:28.309Z,19.70
2018-05-24T03:05:56.546Z,19.50
2018-05-24T03:08:24.745Z,19.60
2018-05-24T03:10:52.972Z,19.60
2018-05-24T03:13:21.287Z,19.70
2018-05-24T03:15:50.301Z,20.10
2018-05-24T03:18:18.563Z,20.10
2018-05-24T03:20:46.765Z,19.90
2018-05-24T03:23:15.749Z,19.90
2018-05-24T03:25:43.968Z,19.90
2018-05-24T03:28:12.941Z,19.60
2018-05-24T03:30:41.169Z,19.60
2018-05-24T03:33:09.382Z,19.90
2018-05-24T03:35:37.626Z,19.80
2018-05-24T03:38:06.617Z,20.60
2018-05-24T03:40:34.862Z,20.60
2018-05-24T03:43:03.085Z,20.20
2018-05-24T03:45:31.413Z,20.10
2018-05-24T03:47:59.643Z,20.30
2018-05-24T03:50:27.884Z,20.00
2018-05-24T03:52:56.869Z,19.80
2018-05-24T03:55:25.081Z,19.80
2018-05-24T03:57:53.420Z,19.90
2018-05-24T04:00:33.353Z,20.00
2018-05-24T04:03:13.553Z,20.60
2018-05-24T04:05:41.882Z,20.30
2018-05-24T04:08:10.872Z,20.00
2018-05-24T04:10:39.919Z,20.10
2018-05-24T04:13:08.191Z,20.10
2018-05-24T04:15:37.210Z,20.10
2018-05-24T04:18:05.477Z,20.00
2018-05-24T04:20:34.472Z,20.50
2018-05-24T04:23:02.711Z,20.50
2018-05-24T04:25:30.972Z,20.50
2018-05-24T04:27:59.962Z,20.70
2018-05-24T04:30:28.941Z,20.30
2018-05-24T04:32:57.181Z,20.30
2018-05-24T04:35:25.400Z,20.10
2018-05-24T04:37:53.625Z,20.20
2018-05-24T04:40:22.618Z,20.20
2018-05-24T04:42:50.897Z,20.30
2018-05-24T04:45:19.171Z,20.00
2018-05-24T04:47:47.401Z,20.00
2018-05-24T04:50:16.377Z,20.20
2018-05-24T04:52:44.655Z,20.20
2018-05-24T04:55:13.064Z,20.00
2018-05-24T04:57:41.277Z,19.60
2018-05-24T05:00:10.288Z,20.30
2018-05-24T05:02:39.282Z,20.30
2018-05-24T05:05:07.509Z,20.30
2018-05-24T05:07:35.758Z,20.50
2018-05-24T05:10:03.996Z,20.50
2018-05-24T05:12:32.261Z,20.20
2018-05-24T05:15:00.538Z,20.60
2018-05-24T05:17:30.253Z,20.20
2018-05-24T05:19:59.258Z,20.10
2018-05-24T05:22:28.262Z,20.00
2018-05-24T05:24:57.277Z,20.20
2018-05-24T05:27:25.497Z,20.20
2018-05-24T05:29:53.771Z,20.60
2018-05-24T05:32:23.607Z,20.20
2018-05-24T05:34:51.828Z,20.20
2018-05-24T05:37:20.173Z,20.50
2018-05-24T05:39:48.385Z,20.60
2018-05-24T05:42:16.605Z,20.70
2018-05-24T05:44:44.936Z,21.10
2018-05-24T05:47:14.021Z,20.70
2018-05-24T05:49:43.026Z,20.60
2018-05-24T05:52:12.050Z,20.80
2018-05-24T05:54:41.041Z,21.00
2018-05-24T05:57:10.053Z,21.10
2018-05-24T05:59:39.080Z,20.70
2018-05-24T06:02:07.324Z,20.70
2018-05-24T06:04:35.629Z,21.10
2018-05-24T06:07:03.933Z,21.20
2018-05-24T06:09:32.929Z,21.10
2018-05-24T06:12:01.977Z,21.00
2018-05-24T06:14:30.200Z,21.00
2018-05-24T06:16:58.433Z,21.10
2018-05-24T06:19:26.650Z,20.70
2018-05-24T06:21:54.889Z,21.00
2018-05-24T06:24:23.102Z,21.20
2018-05-24T06:26:51.408Z,21.20
2018-05-24T06:29:19.630Z,21.20
2018-05-24T06:31:47.851Z,21.20
2018-05-24T06:34:16.852Z,21.10
2018-05-24T06:36:45.844Z,21.20
2018-05-24T06:39:14.139Z,21.10
2018-05-24T06:41:43.144Z,21.20
2018-05-24T06:44:11.357Z,21.20
2018-05-24T06:46:39.698Z,21.30
2018-05-24T06:49:07.914Z,21.00
2018-05-24T06:51:37.137Z,21.20
2018-05-24T06:54:06.129Z,21.20
2018-05-24T06:56:35.155Z,21.10
2018-05-24T06:59:03.436Z,21.10
2018-05-24T07:01:32.445Z,21.00
2018-05-24T07:04:00.683Z,21.00
2018-05-24T07:06:28.909Z,21.20
2018-05-24T07:08:57.922Z,21.20
2018-05-24T07:11:26.978Z,21.20
2018-05-24T07:13:55.206Z,21.20
2018-05-24T07:16:24.328Z,21.20
2018-05-24T07:18:54.042Z,21.10
2018-05-24T07:21:23.077Z,21.20
2018-05-24T07:23:51.325Z,21.20
2018-05-24T07:26:19.538Z,21.30
2018-05-24T07:28:47.754Z,21.30
2018-05-24T07:31:15.988Z,21.30
2018-05-24T07:33:44.283Z,21.30
2018-05-24T07:36:13.292Z,21.20
2018-05-24T07:38:42.325Z,21.30
2018-05-24T07:41:10.593Z,21.30
2018-05-24T07:43:39.590Z,21.20
2018-05-24T07:46:07.901Z,21.30
2018-05-24T07:48:36.132Z,21.20
2018-05-24T07:51:04.377Z,21.20
2018-05-24T07:53:32.658Z,21.20
2018-05-24T07:56:01.788Z,21.30
2018-05-24T07:58:30.760Z,21.40
2018-05-24T08:00:59.761Z,21.30
2018-05-24T08:03:28.769Z,21.30
2018-05-24T08:05:56.997Z,21.30
2018-05-24T08:08:25.209Z,21.40
2018-05-24T08:10:53.450Z,21.30
2018-05-24T08:13:21.717Z,21.20
2018-05-24T08:15:50.106Z,21.20
2018-05-24T08:18:18.321Z,21.10
2018-05-24T08:20:47.306Z,21.10
2018-05-24T08:23:16.318Z,21.10
2018-05-24T08:25:45.432Z,21.10
2018-05-24T08:28:14.406Z,21.10
2018-05-24T08:30:42.798Z,21.10
2018-05-24T08:33:10.977Z,21.20
2018-05-24T08:35:39.193Z,21.10
2018-05-24T08:38:08.210Z,21.20
2018-05-24T08:40:37.240Z,21.30
2018-05-24T08:43:05.409Z,21.30
2018-05-24T08:45:33.687Z,21.60
2018-05-24T08:48:02.829Z,21.40
2018-05-24T08:50:31.081Z,21.40
2018-05-24T08:52:59.275Z,21.30
2018-05-24T08:55:28.314Z,21.20
2018-05-24T08:57:56.536Z,21.10
2018-05-24T09:00:24.849Z,21.10
2018-05-24T09:02:53.867Z,21.20
2018-05-24T09:05:22.147Z,21.10
2018-05-24T09:07:51.140Z,21.30
2018-05-24T09:10:19.364Z,21.30
2018-05-24T09:12:47.583Z,21.40
2018-05-24T09:15:15.825Z,21.30
2018-05-24T09:17:44.862Z,21.20
2018-05-24T09:20:13.219Z,21.20
2018-05-24T09:22:42.109Z,21.20
2018-05-24T09:25:10.332Z,21.20
2018-05-24T09:27:38.589Z,21.10
2018-05-24T09:30:07.592Z,21.00
2018-05-24T09:32:36.710Z,21.00
2018-05-24T09:35:05.006Z,21.00
2018-05-24T09:37:34.043Z,21.10
2018-05-24T09:40:02.297Z,21.10
2018-05-24T09:42:31.401Z,21.00
2018-05-24T09:45:00.398Z,21.00
2018-05-24T09:47:28.689Z,21.00
2018-05-24T09:49:57.689Z,21.20
2018-05-24T09:52:26.012Z,21.20
2018-05-24T09:54:54.987Z,21.10
2018-05-24T09:57:23.199Z,21.10
2018-05-24T09:59:52.189Z,21.00
2018-05-24T10:02:21.212Z,21.20
2018-05-24T10:04:49.485Z,21.20
2018-05-24T10:07:18.466Z,21.30
2018-05-24T10:09:46.675Z,21.40
2018-05-24T10:12:15.790Z,21.10
2018-05-24T10:14:44.796Z,21.20
2018-05-24T10:17:13.835Z,21.30
2018-05-24T10:19:42.789Z,21.20
2018-05-24T10:22:11.006Z,21.30
2018-05-24T10:24:39.993Z,21.10
2018-05-24T10:27:09.021Z,21.50
2018-05-24T10:29:38.025Z,21.40
2018-05-24T10:32:06.249Z,21.40
2018-05-24T10:34:34.491Z,21.20
2018-05-24T10:37:02.765Z,21.10
2018-05-24T10:39:31.761Z,21.20
2018-05-24T10:42:00.056Z,21.20
2018-05-24T10:44:28.981Z,21.80
2018-05-24T10:46:57.985Z,22.20
2018-05-24T10:49:26.191Z,22.20
2018-05-24T10:51:55.169Z,21.20
2018-05-24T10:54:23.462Z,21.20
2018-05-24T10:56:52.573Z,21.30
2018-05-24T10:59:21.653Z,21.30
2018-05-24T11:01:49.875Z,21.20
2018-05-24T11:04:18.865Z,21.80
2018-05-24T11:06:47.866Z,21.40
2018-05-24T11:09:17.574Z,21.30
2018-05-24T11:11:45.835Z,21.30
2018-05-24T11:14:14.020Z,21.50
2018-05-24T11:16:42.261Z,21.20
2018-05-24T11:19:11.262Z,21.20
2018-05-24T11:21:40.264Z,21.20
2018-05-24T11:24:08.590Z,21.20
2018-05-24T11:26:36.965Z,21.10
2018-05-24T11:29:05.958Z,21.00
2018-05-24T11:31:34.957Z,21.20
2018-05-24T11:34:03.203Z,21.20
2018-05-24T11:36:31.425Z,21.50
2018-05-24T11:38:59.679Z,21.50
2018-05-24T11:41:27.894Z,21.70
2018-05-24T11:43:56.100Z,21.40
2018-05-24T11:46:25.099Z,21.20
2018-05-24T11:48:54.069Z,21.20
2018-05-24T11:51:22.299Z,21.20
2018-05-24T11:53:50.595Z,21.20
2018-05-24T11:56:19.589Z,21.10
2018-05-24T11:58:47.805Z,21.10
2018-05-24T12:01:18.628Z,21.30
2018-05-24T12:03:47.697Z,21.30
2018-05-24T12:06:16.037Z,21.20
2018-05-24T12:08:45.075Z,21.20
2018-05-24T12:11:14.092Z,21.30
2018-05-24T12:13:42.341Z,21.20
2018-05-24T12:16:11.441Z,21.20
2018-05-24T12:18:40.453Z,21.20
2018-05-24T12:21:09.479Z,21.10
2018-05-24T12:23:37.702Z,21.10
2018-05-24T12:26:06.038Z,21.10
2018-05-24T12:28:35.164Z,21.30
2018-05-24T12:31:03.423Z,21.30
2018-05-24T12:33:31.726Z,21.30
2018-05-24T12:36:00.722Z,21.20
2018-05-24T12:38:29.733Z,21.10
2018-05-24T12:40:58.734Z,21.60
2018-05-24T12:43:27.751Z,21.20
2018-05-24T12:45:56.031Z,21.20
2018-05-24T12:48:25.028Z,21.20
2018-05-24T12:50:54.038Z,21.30
2018-05-24T12:53:23.332Z,21.20
2018-05-24T12:55:51.554Z,21.20
2018-05-24T12:58:20.533Z,21.30
2018-05-24T13:00:48.871Z,21.20
2018-05-24T13:03:17.172Z,21.10
2018-05-24T13:05:46.253Z,21.70
2018-05-24T13:08:14.608Z,21.70
2018-05-24T13:10:43.552Z,21.20
2018-05-24T13:13:13.626Z,21.20
2018-05-24T13:15:41.838Z,21.20
2018-05-24T13:18:10.078Z,21.20
2018-05-24T13:20:39.190Z,21.20
2018-05-24T13:23:08.173Z,21.20
2018-05-24T13:25:36.446Z,21.10
2018-05-24T13:28:04.690Z,21.10
2018-05-24T13:30:34.086Z,21.30
2018-05-24T13:33:03.098Z,21.30
2018-05-24T13:35:32.106Z,21.50
2018-05-24T13:38:01.085Z,21.40
2018-05-24T13:40:30.127Z,21.30
2018-05-24T13:42:59.601Z,21.60
2018-05-24T13:45:29.345Z,21.30
2018-05-24T13:47:58.353Z,21.30
2018-05-24T13:50:27.357Z,21.20
2018-05-24T13:52:56.349Z,21.20
2018-05-24T13:55:24.648Z,21.20
2018-05-24T13:57:52.949Z,21.10
2018-05-24T14:00:21.942Z,21.20
2018-05-24T14:02:50.224Z,21.30
2018-05-24T14:05:19.951Z,21.50
2018-05-24T14:07:48.989Z,21.30
2018-05-24T14:10:17.267Z,21.30
2018-05-24T14:12:46.261Z,21.30
2018-05-24T14:15:14.680Z,21.30
2018-05-24T14:17:42.921Z,21.30
2018-05-24T14:20:11.228Z,21.20
2018-05-24T14:22:40.259Z,21.20
2018-05-24T14:25:08.489Z,21.20
2018-05-24T14:27:36.785Z,21.50
2018-05-24T14:30:05.031Z,21.40
2018-05-24T14:32:33.324Z,21.80
2018-05-24T14:35:01.585Z,21.60
2018-05-24T14:37:30.568Z,21.30
2018-05-24T14:39:58.784Z,21.30
2018-05-24T14:42:27.800Z,21.30
2018-05-24T14:44:56.941Z,21.40
2018-05-24T14:47:25.219Z,21.40
2018-05-24T14:49:53.401Z,21.40
2018-05-24T14:52:21.672Z,21.50
2018-05-24T14:54:49.857Z,21.40
2018-05-24T14:57:18.089Z,21.80
2018-05-24T14:59:46.422Z,21.50
2018-05-24T15:02:15.418Z,21.40
2018-05-24T15:04:43.669Z,21.40
2018-05-24T15:07:12.020Z,21.30
2018-05-24T15:09:41.104Z,21.30
2018-05-24T15:12:09.417Z,21.30
2018-05-24T15:14:38.405Z,21.20
2018-05-24T15:17:07.410Z,21.40
2018-05-24T15:19:35.646Z,21.40
2018-05-24T15:22:03.885Z,21.30
2018-05-24T15:24:33.282Z,21.50
2018-05-24T15:27:01.640Z,21.40
2018-05-24T15:29:29.871Z,21.50
2018-05-24T15:31:58.089Z,21.30
2018-05-24T15:34:26.310Z,21.30
2018-05-24T15:36:54.695Z,21.20
2018-05-24T15:39:23.747Z,21.20
2018-05-24T15:41:52.022Z,21.20
2018-05-24T15:44:20.260Z,21.20
2018-05-24T15:46:49.239Z,21.20
2018-05-24T15:49:18.225Z,21.20
2018-05-24T15:51:46.537Z,21.20
2018-05-24T15:54:15.529Z,21.30
2018-05-24T15:56:43.757Z,21.30
2018-05-24T15:59:11.990Z,21.20
2018-05-24T16:01:40.338Z,21.30
2018-05-24T16:04:08.605Z,21.30
2018-05-24T16:06:37.608Z,21.30
2018-05-24T16:09:06.649Z,21.30
2018-05-24T16:11:34.936Z,21.30
2018-05-24T16:14:03.177Z,21.30
2018-05-24T16:16:31.557Z,21.30
2018-05-24T16:18:59.751Z,21.30
2018-05-24T16:21:27.981Z,21.20
2018-05-24T16:23:56.189Z,21.30
2018-05-24T16:26:24.460Z,21.30
2018-05-24T16:28:52.697Z,21.30
2018-05-24T16:31:20.934Z,21.30
2018-05-24T16:33:49.194Z,21.30
2018-05-24T16:36:17.454Z,21.40
2018-05-24T16:38:45.700Z,21.50
2018-05-24T16:41:13.904Z,21.40
2018-05-24T16:43:42.129Z,21.40
2018-05-24T16:46:10.364Z,21.50
2018-05-24T16:48:38.659Z,21.40
2018-05-24T16:51:06.900Z,21.30
2018-05-24T16:53:35.125Z,21.40
2018-05-24T16:56:03.387Z,21.30
2018-05-24T16:58:32.371Z,21.30
2018-05-24T17:01:00.590Z,21.30
2018-05-24T17:03:29.576Z,21.30
2018-05-24T17:05:58.571Z,21.30
2018-05-24T17:08:26.790Z,21.40
2018-05-24T17:10:55.787Z,21.50
2018-05-24T17:13:24.758Z,21.50
2018-05-24T17:15:52.973Z,21.40
2018-05-24T17:18:21.957Z,21.30
2018-05-24T17:20:50.169Z,21.30
2018-05-24T17:23:19.150Z,21.50
2018-05-24T17:25:47.368Z,21.50
2018-05-24T17:28:16.377Z,21.40
2018-05-24T17:30:45.380Z,21.40
2018-05-24T17:33:14.374Z,21.50
2018-05-24T17:35:42.581Z,21.40
2018-05-24T17:38:10.843Z,21.40
2018-05-24T17:40:39.084Z,21.50
2018-05-24T17:43:07.410Z,21.50
2018-05-24T17:45:35.653Z,21.40
2018-05-24T17:48:03.977Z,21.30
2018-05-24T17:50:32.292Z,21.50
2018-05-24T17:53:00.503Z,21.50
2018-05-24T17:55:28.714Z,21.50
2018-05-24T17:57:56.959Z,21.40
2018-05-24T18:00:25.162Z,21.40
2018-05-24T18:02:54.153Z,21.40
2018-05-24T18:05:23.129Z,21.40
2018-05-24T18:07:52.125Z,21.40
2018-05-24T18:10:20.353Z,21.40
2018-05-24T18:12:49.333Z,21.40
2018-05-24T18:15:17.565Z,21.40
2018-05-24T18:17:45.792Z,21.40
2018-05-24T18:20:14.021Z,21.40
2018-05-24T18:22:42.240Z,21.40
2018-05-24T18:25:10.579Z,21.50
2018-05-24T18:27:38.774Z,21.40
2018-05-24T18:30:06.993Z,21.50
2018-05-24T18:32:36.088Z,21.60
2018-05-24T18:35:05.077Z,21.60
2018-05-24T18:37:33.313Z,21.70
2018-05-24T18:40:01.533Z,21.60
2018-05-24T18:42:29.747Z,21.60
2018-05-24T18:44:58.040Z,21.60
2018-05-24T18:47:27.034Z,21.50
2018-05-24T18:49:55.249Z,21.50
2018-05-24T18:52:23.457Z,21.50
2018-05-24T18:54:51.700Z,21.50
2018-05-24T18:57:19.912Z,21.50
2018-05-24T18:59:48.142Z,21.60
2018-05-24T19:02:16.386Z,21.60
2018-05-24T19:04:45.365Z,21.50
2018-05-24T19:07:13.618Z,21.50
2018-05-24T19:09:41.870Z,21.60
2018-05-24T19:12:10.191Z,21.60
2018-05-24T19:14:38.426Z,21.70
2018-05-24T19:17:06.667Z,21.60
2018-05-24T19:19:34.923Z,21.50
2018-05-24T19:22:03.214Z,21.50
2018-05-24T19:24:32.213Z,21.50
2018-05-24T19:27:01.214Z,21.50
2018-05-24T19:29:30.215Z,21.50
2018-05-24T19:31:59.226Z,21.70
2018-05-24T19:34:28.240Z,21.70
2018-05-24T19:36:56.422Z,21.70
2018-05-24T19:39:25.408Z,21.60
2018-05-24T19:41:53.632Z,21.60
2018-05-24T19:44:22.608Z,21.70
2018-05-24T19:46:50.839Z,21.70
2018-05-24T19:49:19.069Z,21.70
2018-05-24T19:51:47.351Z,21.70
2018-05-24T19:54:15.557Z,21.60
2018-05-24T19:56:43.881Z,21.60
2018-05-24T19:59:12.081Z,21.60
2018-05-24T20:01:40.342Z,21.60
2018-05-24T20:04:09.336Z,21.50
2018-05-24T20:06:37.573Z,21.60
2018-05-24T20:09:05.865Z,21.60
2018-05-24T20:11:34.093Z,21.60
2018-05-24T20:14:02.308Z,21.60
2018-05-24T20:16:30.539Z,21.70
2018-05-24T20:18:59.516Z,21.70
2018-05-24T20:21:27.745Z,21.70
2018-05-24T20:23:55.966Z,21.70
2018-05-24T20:26:24.958Z,21.70
2018-05-24T20:28:53.235Z,21.70
2018-05-24T20:31:21.421Z,21.70
2018-05-24T20:33:49.677Z,21.60
2018-05-24T20:36:17.898Z,21.60
2018-05-24T20:38:46.119Z,21.50
2018-05-24T20:41:14.341Z,21.60
2018-05-24T20:43:42.571Z,21.60
2018-05-24T20:46:10.785Z,21.60
2018-05-24T20:48:39.788Z,21.60
2018-05-24T20:51:07.988Z,21.60
2018-05-24T20:53:36.968Z,21.60
2018-05-24T20:56:05.226Z,21.60
2018-05-24T20:58:33.486Z,21.70
2018-05-24T21:01:01.694Z,21.70
2018-05-24T21:03:29.926Z,21.60
2018-05-24T21:05:58.161Z,21.60
2018-05-24T21:08:26.379Z,21.50
2018-05-24T21:10:54.594Z,21.60
2018-05-24T21:13:23.583Z,21.60
2018-05-24T21:15:51.793Z,21.60
2018-05-24T21:18:20.774Z,21.60
2018-05-24T21:20:48.989Z,21.60
2018-05-24T21:23:17.964Z,21.70
2018-05-24T21:25:46.189Z,21.70
2018-05-24T21:28:14.848Z,21.60
2018-05-24T21:30:43.044Z,21.60
2018-05-24T21:33:11.268Z,21.60
2018-05-24T21:35:39.485Z,21.70
2018-05-24T21:38:07.736Z,21.70
2018-05-24T21:40:36.729Z,21.70
2018-05-24T21:43:05.741Z,21.80
2018-05-24T21:45:34.778Z,21.80
2018-05-24T21:48:02.960Z,21.70
2018-05-24T21:50:31.190Z,21.70
2018-05-24T21:52:59.444Z,21.80
2018-05-24T21:55:27.652Z,21.70
2018-05-24T21:57:55.879Z,21.60
2018-05-24T22:00:24.849Z,21.70
2018-05-24T22:02:53.060Z,21.70
2018-05-24T22:05:21.273Z,21.70
2018-05-24T22:07:49.512Z,21.80
2018-05-24T22:10:18.443Z,21.70
2018-05-24T22:12:46.680Z,21.70
2018-05-24T22:15:14.906Z,21.70
2018-05-24T22:17:43.121Z,21.70
2018-05-24T22:20:12.118Z,21.70
2018-05-24T22:22:40.388Z,21.80
2018-05-24T22:25:08.593Z,21.70
2018-05-24T22:27:37.912Z,21.80
2018-05-24T22:30:08.700Z,21.80
2018-05-24T22:32:37.661Z,21.80
2018-05-24T22:35:07.675Z,21.80
2018-05-24T22:37:35.918Z,21.80
2018-05-24T22:40:04.186Z,21.70
2018-05-24T22:42:32.420Z,21.80
2018-05-24T22:45:00.641Z,21.80
2018-05-24T22:47:29.621Z,21.70
2018-05-24T22:49:57.857Z,21.70
2018-05-24T22:52:26.837Z,21.70
2018-05-24T22:54:55.058Z,21.80
2018-05-24T22:57:23.286Z,21.70
2018-05-24T22:59:51.569Z,21.60
2018-05-24T23:02:19.805Z,21.70
2018-05-24T23:04:48.789Z,21.70
2018-05-24T23:07:17.014Z,21.80
2018-05-24T23:09:45.359Z,21.60
2018-05-24T23:12:13.541Z,21.60
2018-05-24T23:14:41.744Z,21.60
2018-05-24T23:17:09.989Z,21.60
2018-05-24T23:19:38.199Z,21.60
2018-05-24T23:22:06.437Z,21.40
2018-05-24T23:24:34.649Z,21.50
2018-05-24T23:27:02.935Z,21.60
2018-05-24T23:29:31.897Z,21.30
2018-05-24T23:32:00.876Z,21.40
2018-05-24T23:34:29.089Z,21.40
2018-05-24T23:36:58.069Z,21.50
2018-05-24T23:39:26.297Z,21.50
2018-05-24T23:41:54.512Z,21.50
2018-05-24T23:44:22.740Z,21.60
2018-05-24T23:46:50.957Z,21.40
2018-05-24T23:49:19.951Z,21.40
2018-05-24T23:51:48.944Z,21.50
2018-05-24T23:54:17.241Z,21.50
2018-05-24T23:56:46.333Z,21.00
2018-05-24T23:59:14.501Z,21.00
